createdAt,value
2018-04-13T00:00:54.084Z,2.77
2018-04-13T00:03:20.265Z,5.07
2018-04-13T00:05:46.439Z,4.43
2018-04-13T00:08:12.675Z,4.33
2018-04-13T00:10:38.873Z,4.83
2018-04-13T00:13:05.383Z,3.43
2018-04-13T00:15:31.564Z,7.50
2018-04-13T00:17:58.025Z,4.10
2018-04-13T00:20:24.560Z,10.50
2018-04-13T00:22:50.777Z,5.97
2018-04-13T00:25:17.104Z,4.43
2018-04-13T00:27:43.316Z,7.80
2018-04-13T00:30:09.476Z,3.77
2018-04-13T00:32:36.061Z,8.80
2018-04-13T00:35:02.372Z,6.50
2018-04-13T00:37:28.544Z,7.43
2018-04-13T00:39:54.745Z,3.97
2018-04-13T00:42:20.939Z,3.87
2018-04-13T00:44:47.459Z,3.57
2018-04-13T00:47:13.994Z,3.27
2018-04-13T00:49:40.187Z,4.50
2018-04-13T00:52:06.421Z,3.07
2018-04-13T00:54:32.642Z,3.00
2018-04-13T00:56:59.328Z,2.77
2018-04-13T00:59:25.552Z,5.63
2018-04-13T01:01:51.782Z,6.00
2018-04-13T01:04:17.969Z,3.80
2018-04-13T01:06:44.444Z,3.37
2018-04-13T01:09:10.676Z,5.70
2018-04-13T01:11:36.838Z,6.23
2018-04-13T01:14:03.019Z,5.83
2018-04-13T01:16:30.273Z,4.47
2018-04-13T01:18:56.506Z,6.53
2018-04-13T01:21:23.028Z,3.60
2018-04-13T01:23:49.204Z,5.03
2018-04-13T01:26:15.500Z,7.20
2018-04-13T01:28:41.720Z,3.83
2018-04-13T01:31:08.253Z,5.00
2018-04-13T01:33:34.786Z,3.60
2018-04-13T01:36:01.023Z,3.13
2018-04-13T01:38:27.285Z,2.20
2018-04-13T01:40:53.460Z,3.30
2018-04-13T01:43:19.655Z,8.53
2018-04-13T01:45:45.811Z,2.53
2018-04-13T01:48:11.978Z,2.87
2018-04-13T01:50:38.907Z,3.10
2018-04-13T01:53:05.129Z,4.37
2018-04-13T01:55:31.296Z,3.40
2018-04-13T01:57:57.546Z,3.70
2018-04-13T02:00:23.713Z,3.60
2018-04-13T02:02:49.894Z,4.13
2018-04-13T02:05:16.372Z,2.50
2018-04-13T02:07:42.916Z,2.20
2018-04-13T02:10:09.126Z,3.50
2018-04-13T02:12:35.355Z,2.87
2018-04-13T02:15:01.562Z,2.60
2018-04-13T02:17:27.793Z,6.30
2018-04-13T02:19:53.981Z,2.63
2018-04-13T02:22:20.236Z,4.83
2018-04-13T02:24:46.447Z,2.87
2018-04-13T02:27:12.702Z,4.20
2018-04-13T02:29:38.868Z,4.60
2018-04-13T02:32:05.110Z,2.67
2018-04-13T02:34:31.376Z,2.37
2018-04-13T02:36:57.514Z,2.40
2018-04-13T02:39:23.965Z,3.50
2018-04-13T02:41:50.146Z,4.03
2018-04-13T02:44:16.375Z,5.23
2018-04-13T02:46:42.568Z,2.67
2018-04-13T02:49:08.783Z,2.40
2018-04-13T02:51:34.991Z,2.33
2018-04-13T02:54:01.215Z,3.03
2018-04-13T02:56:27.377Z,14.50
2018-04-13T02:58:54.012Z,2.60
2018-04-13T03:01:20.535Z,4.53
2018-04-13T03:03:46.964Z,2.83
2018-04-13T03:06:13.214Z,10.23
2018-04-13T03:08:39.436Z,2.63
2018-04-13T03:11:05.630Z,3.00
2018-04-13T03:13:32.250Z,5.20
2018-04-13T03:15:58.412Z,3.57
2018-04-13T03:18:24.626Z,2.70
2018-04-13T03:20:50.851Z,2.67
2018-04-13T03:23:17.038Z,3.80
2018-04-13T03:25:43.263Z,3.00
2018-04-13T03:28:09.429Z,6.93
2018-04-13T03:30:35.648Z,3.20
2018-04-13T03:33:01.858Z,4.27
2018-04-13T03:35:28.339Z,4.50
2018-04-13T03:37:54.520Z,3.20
2018-04-13T03:40:20.804Z,3.93
2018-04-13T03:42:47.017Z,2.30
2018-04-13T03:45:13.560Z,2.30
2018-04-13T03:47:39.735Z,3.93
2018-04-13T03:50:05.912Z,4.80
2018-04-13T03:52:32.119Z,2.50
2018-04-13T03:54:58.281Z,4.83
2018-04-13T03:57:24.530Z,4.70
2018-04-13T03:59:50.757Z,8.43
2018-04-13T04:02:16.936Z,2.87
2018-04-13T04:04:43.182Z,3.80
2018-04-13T04:07:09.617Z,2.17
2018-04-13T04:09:35.785Z,7.93
2018-04-13T04:12:01.986Z,4.77
2018-04-13T04:14:28.191Z,2.20
2018-04-13T04:16:54.625Z,6.63
2018-04-13T04:19:33.201Z,3.33
2018-04-13T04:25:16.211Z,2.40
2018-04-13T04:27:42.412Z,10.10
2018-04-13T04:30:08.782Z,8.10
2018-04-13T04:32:35.302Z,2.77
2018-04-13T04:35:01.826Z,11.40
2018-04-13T04:37:28.027Z,3.40
2018-04-13T04:39:54.277Z,3.17
2018-04-13T04:42:20.533Z,2.90
2018-04-13T04:44:46.704Z,4.13
2018-04-13T04:47:12.904Z,4.10
2018-04-13T04:49:39.085Z,3.60
2018-04-13T04:52:05.276Z,5.63
2018-04-13T04:54:31.637Z,2.60
2018-04-13T04:56:57.865Z,2.93
2018-04-13T04:59:24.105Z,8.70
2018-04-13T05:01:50.297Z,4.93
2018-04-13T05:04:16.508Z,8.67
2018-04-13T05:06:43.214Z,8.10
2018-04-13T05:09:09.449Z,11.70
2018-04-13T05:11:35.686Z,7.43
2018-04-13T05:14:01.959Z,6.97
2018-04-13T05:16:28.138Z,7.90
2018-04-13T05:18:54.331Z,15.60
2018-04-13T05:21:20.512Z,8.93
2018-04-13T05:23:46.727Z,13.83
2018-04-13T05:26:13.376Z,14.30
2018-04-13T05:28:39.618Z,7.50
2018-04-13T05:31:05.886Z,9.60
2018-04-13T05:33:32.218Z,7.00
2018-04-13T05:35:58.394Z,13.60
2018-04-13T05:38:24.998Z,16.33
2018-04-13T05:40:51.180Z,24.63
2018-04-13T05:43:17.668Z,19.43
2018-04-13T05:45:43.960Z,15.40
2018-04-13T05:48:10.186Z,17.93
2018-04-13T05:50:37.141Z,22.87
2018-04-13T05:53:03.421Z,12.43
2018-04-13T05:55:29.629Z,11.70
2018-04-13T05:57:55.841Z,10.60
2018-04-13T06:00:22.034Z,8.17
2018-04-13T06:02:48.205Z,13.83
2018-04-13T06:05:14.422Z,28.70
2018-04-13T06:07:40.944Z,14.87
2018-04-13T06:10:07.119Z,34.63
2018-04-13T06:12:33.355Z,20.00
2018-04-13T06:14:59.937Z,22.53
2018-04-13T06:17:26.118Z,15.83
2018-04-13T06:19:52.545Z,15.17
2018-04-13T06:22:18.781Z,15.93
2018-04-13T06:24:45.258Z,26.20
2018-04-13T06:27:11.434Z,16.33
2018-04-13T06:29:37.691Z,11.37
2018-04-13T06:32:03.879Z,21.23
2018-04-13T06:34:30.783Z,16.00
2018-04-13T06:36:57.059Z,16.50
2018-04-13T06:39:23.274Z,12.43
2018-04-13T06:41:49.780Z,7.57
2018-04-13T06:44:15.985Z,11.37
2018-04-13T06:46:42.301Z,24.93
2018-04-13T06:49:08.537Z,23.40
2018-04-13T06:51:34.756Z,9.60
2018-04-13T06:54:00.969Z,8.13
2018-04-13T06:56:27.249Z,7.80
2018-04-13T06:58:53.486Z,10.30
2018-04-13T07:01:20.008Z,12.47
2018-04-13T07:03:46.733Z,13.30
2018-04-13T07:06:12.971Z,7.47
2018-04-13T07:08:39.136Z,9.53
2018-04-13T07:11:05.322Z,9.67
2018-04-13T07:13:31.650Z,11.53
2018-04-13T07:15:57.844Z,10.33
2018-04-13T07:18:24.345Z,12.33
2018-04-13T07:20:50.561Z,14.70
2018-04-13T07:23:16.769Z,12.07
2018-04-13T07:25:43.235Z,12.97
2018-04-13T07:28:09.470Z,8.87
2018-04-13T07:30:35.975Z,15.20
2018-04-13T07:33:02.169Z,7.50
2018-04-13T07:35:28.413Z,14.97
2018-04-13T07:37:54.597Z,8.43
2018-04-13T07:40:20.822Z,14.03
2018-04-13T07:42:47.103Z,12.87
2018-04-13T07:45:13.293Z,13.20
2018-04-13T07:47:39.780Z,8.93
2018-04-13T07:50:06.009Z,7.13
2018-04-13T07:52:32.182Z,6.67
2018-04-13T07:54:58.438Z,8.97
2018-04-13T07:57:24.614Z,15.57
2018-04-13T07:59:51.395Z,9.27
2018-04-13T08:02:17.573Z,9.03
2018-04-13T08:04:43.755Z,12.07
2018-04-13T08:07:10.011Z,6.43
2018-04-13T08:09:36.209Z,5.93
2018-04-13T08:12:02.384Z,7.40
2018-04-13T08:14:28.687Z,12.00
2018-04-13T08:16:54.929Z,6.80
2018-04-13T08:19:21.365Z,5.40
2018-04-13T08:21:47.577Z,6.40
2018-04-13T08:24:13.814Z,8.13
2018-04-13T08:26:40.476Z,6.90
2018-04-13T08:29:06.659Z,5.93
2018-04-13T08:31:32.896Z,8.83
2018-04-13T08:33:59.106Z,6.50
2018-04-13T08:36:25.422Z,5.13
2018-04-13T08:38:51.618Z,9.13
2018-04-13T08:41:17.828Z,5.93
2018-04-13T08:43:44.071Z,7.57
2018-04-13T08:46:10.281Z,9.97
2018-04-13T08:48:36.567Z,6.27
2018-04-13T08:51:02.756Z,7.10
2018-04-13T08:53:29.244Z,8.33
2018-04-13T08:55:55.518Z,8.07
2018-04-13T08:58:21.692Z,13.37
2018-04-13T09:00:47.915Z,4.73
2018-04-13T09:03:14.392Z,8.10
2018-04-13T09:05:41.018Z,8.30
2018-04-13T09:08:07.197Z,6.80
2018-04-13T09:10:33.438Z,6.20
2018-04-13T09:12:59.652Z,7.40
2018-04-13T09:15:25.849Z,7.93
2018-04-13T09:17:52.046Z,6.57
2018-04-13T09:20:18.498Z,6.50
2018-04-13T09:22:45.141Z,6.90
2018-04-13T09:25:11.571Z,14.17
2018-04-13T09:27:38.237Z,6.63
2018-04-13T09:30:04.453Z,7.23
2018-04-13T09:32:30.683Z,13.43
2018-04-13T09:34:56.931Z,9.77
2018-04-13T09:37:23.137Z,12.63
2018-04-13T09:39:49.376Z,12.83
2018-04-13T09:42:15.646Z,5.70
2018-04-13T09:44:42.274Z,13.60
2018-04-13T09:47:08.870Z,9.10
2018-04-13T09:49:35.029Z,6.67
2018-04-13T09:52:01.289Z,8.00
2018-04-13T09:54:27.519Z,13.33
2018-04-13T09:56:53.735Z,9.60
2018-04-13T09:59:19.925Z,7.43
2018-04-13T10:01:46.451Z,6.40
2018-04-13T10:04:12.757Z,6.10
2018-04-13T10:06:38.921Z,6.30
2018-04-13T10:09:05.519Z,7.43
2018-04-13T10:11:31.731Z,4.33
2018-04-13T10:13:57.890Z,5.60
2018-04-13T10:16:24.098Z,9.23
2018-04-13T10:18:50.253Z,7.37
2018-04-13T10:21:16.412Z,4.77
2018-04-13T10:23:42.609Z,5.20
2018-04-13T10:26:08.825Z,8.17
2018-04-13T10:28:34.988Z,4.77
2018-04-13T10:31:01.222Z,4.90
2018-04-13T10:33:27.475Z,5.43
2018-04-13T10:35:53.924Z,8.07
2018-04-13T10:38:20.210Z,9.23
2018-04-13T10:40:46.425Z,9.50
2018-04-13T10:43:12.701Z,5.60
2018-04-13T10:45:38.899Z,8.10
2018-04-13T10:48:05.165Z,11.77
2018-04-13T10:50:31.365Z,7.47
2018-04-13T10:52:57.634Z,7.53
2018-04-13T10:55:23.851Z,10.20
2018-04-13T10:57:50.015Z,8.37
2018-04-13T11:00:16.173Z,5.57
2018-04-13T11:02:42.374Z,7.50
2018-04-13T11:05:08.538Z,6.67
2018-04-13T11:07:41.782Z,7.90
2018-04-13T11:10:08.004Z,6.77
2018-04-13T11:12:34.161Z,6.97
2018-04-13T11:15:00.423Z,6.77
2018-04-13T11:17:26.863Z,6.27
2018-04-13T11:19:53.061Z,7.30
2018-04-13T11:22:19.230Z,9.60
2018-04-13T11:24:45.442Z,7.23
2018-04-13T11:27:11.694Z,7.40
2018-04-13T11:29:37.863Z,12.73
2018-04-13T11:32:04.564Z,6.40
2018-04-13T11:34:30.760Z,7.77
2018-04-13T11:36:56.931Z,7.10
2018-04-13T11:39:23.116Z,9.83
2018-04-13T11:41:49.275Z,12.03
2018-04-13T11:44:15.599Z,6.10
2018-04-13T11:46:41.763Z,11.03
2018-04-13T11:49:08.104Z,7.20
2018-04-13T11:51:34.628Z,9.50
2018-04-13T11:54:00.856Z,10.10
2018-04-13T11:56:27.074Z,7.60
2018-04-13T11:58:53.334Z,6.90
2018-04-13T12:01:19.895Z,12.40
2018-04-13T12:03:46.423Z,12.90
2018-04-13T12:06:12.591Z,10.10
2018-04-13T12:08:38.796Z,7.67
2018-04-13T12:11:05.027Z,14.10
2018-04-13T12:13:31.225Z,16.10
2018-04-13T12:15:57.415Z,29.03
2018-04-13T12:18:23.619Z,31.43
2018-04-13T12:20:49.790Z,13.60
2018-04-13T12:23:15.981Z,25.03
2018-04-13T12:25:42.332Z,45.07
2018-04-13T12:28:08.816Z,51.47
2018-04-13T12:30:34.991Z,24.67
2018-04-13T12:33:01.188Z,27.93
2018-04-13T12:35:27.511Z,19.43
2018-04-13T12:37:53.678Z,29.47
2018-04-13T12:40:19.844Z,15.43
2018-04-13T12:42:46.090Z,29.70
2018-04-13T12:45:12.257Z,25.30
2018-04-13T12:47:38.578Z,22.40
2018-04-13T12:50:04.772Z,26.60
2018-04-13T12:52:31.023Z,17.80
2018-04-13T12:54:57.464Z,19.77
2018-04-13T12:57:23.450Z,17.13
2018-04-13T12:59:49.752Z,24.20
2018-04-13T13:02:15.929Z,15.43
2018-04-13T13:04:42.095Z,22.57
2018-04-13T13:07:08.281Z,20.07
2018-04-13T13:09:34.459Z,19.87
2018-04-13T13:12:00.824Z,29.90
2018-04-13T13:14:27.062Z,15.80
2018-04-13T13:16:53.220Z,16.87
2018-04-13T13:19:19.712Z,17.70
2018-04-13T13:21:45.917Z,20.77
2018-04-13T13:24:12.153Z,20.83
2018-04-13T13:26:38.329Z,20.23
2018-04-13T13:29:04.847Z,16.10
2018-04-13T13:31:31.029Z,23.60
2018-04-13T13:33:57.198Z,13.10
2018-04-13T13:36:23.409Z,12.10
2018-04-13T13:38:49.638Z,20.33
2018-04-13T13:41:15.876Z,12.97
2018-04-13T13:43:42.074Z,16.10
2018-04-13T13:46:08.392Z,21.00
2018-04-13T13:48:35.009Z,16.27
2018-04-13T13:51:01.169Z,20.40
2018-04-13T13:53:27.622Z,21.30
2018-04-13T13:55:53.821Z,14.87
2018-04-13T13:58:19.974Z,11.83
2018-04-13T14:00:46.178Z,14.80
2018-04-13T14:03:12.370Z,13.40
2018-04-13T14:05:38.553Z,11.17
2018-04-13T14:08:04.990Z,7.63
2018-04-13T14:10:31.310Z,18.83
2018-04-13T14:12:57.542Z,16.33
2018-04-13T14:15:23.700Z,15.23
2018-04-13T14:17:50.305Z,13.30
2018-04-13T14:20:16.481Z,12.10
2018-04-13T14:22:42.695Z,17.53
2018-04-13T14:25:09.203Z,14.80
2018-04-13T14:27:35.732Z,15.93
2018-04-13T14:30:01.943Z,14.40
2018-04-13T14:32:28.285Z,10.73
2018-04-13T14:34:54.543Z,11.83
2018-04-13T14:37:20.719Z,13.23
2018-04-13T14:39:46.908Z,13.10
2018-04-13T14:42:13.415Z,15.90
2018-04-13T14:44:39.627Z,9.07
2018-04-13T14:47:05.765Z,12.87
2018-04-13T14:49:32.100Z,16.93
2018-04-13T14:51:58.327Z,12.10
2018-04-13T14:54:24.551Z,12.27
2018-04-13T14:56:50.795Z,12.50
2018-04-13T14:59:17.312Z,12.17
2018-04-13T15:01:43.476Z,11.30
2018-04-13T15:04:09.798Z,11.80
2018-04-13T15:06:36.006Z,11.10
2018-04-13T15:09:02.205Z,13.23
2018-04-13T15:11:28.433Z,12.00
2018-04-13T15:13:54.662Z,10.70
2018-04-13T15:16:20.841Z,10.33
2018-04-13T15:18:47.454Z,10.70
2018-04-13T15:21:13.609Z,12.80
2018-04-13T15:23:39.775Z,18.83
2018-04-13T15:26:05.972Z,12.13
2018-04-13T15:28:32.157Z,8.70
2018-04-13T15:30:58.358Z,11.40
2018-04-13T15:33:24.518Z,10.50
2018-04-13T15:35:50.709Z,14.10
2018-04-13T15:38:16.938Z,9.10
2018-04-13T15:40:43.395Z,10.57
2018-04-13T15:43:09.541Z,9.77
2018-04-13T15:45:35.790Z,13.10
2018-04-13T15:48:01.953Z,12.20
2018-04-13T15:50:28.679Z,10.13
2018-04-13T15:52:54.904Z,10.43
2018-04-13T15:55:21.072Z,13.43
2018-04-13T15:57:47.435Z,12.33
2018-04-13T16:00:13.615Z,7.80
2018-04-13T16:02:39.782Z,10.20
2018-04-13T16:05:05.993Z,11.03
2018-04-13T16:07:32.198Z,9.90
2018-04-13T16:09:58.649Z,9.87
2018-04-13T16:12:24.963Z,9.03
2018-04-13T16:14:51.227Z,7.30
2018-04-13T16:17:17.642Z,10.70
2018-04-13T16:19:43.859Z,11.40
2018-04-13T16:22:10.050Z,10.70
2018-04-13T16:24:36.269Z,8.50
2018-04-13T16:27:02.428Z,12.00
2018-04-13T16:29:28.809Z,11.20
2018-04-13T16:31:54.961Z,9.00
2018-04-13T16:34:21.133Z,9.33
2018-04-13T16:36:47.338Z,8.50
2018-04-13T16:39:13.502Z,9.40
2018-04-13T16:41:39.715Z,7.37
2018-04-13T16:44:05.917Z,7.57
2018-04-13T16:46:32.213Z,9.40
2018-04-13T16:48:58.419Z,12.60
2018-04-13T16:51:24.622Z,8.73
2018-04-13T16:53:50.923Z,9.30
2018-04-13T16:56:17.397Z,8.53
2018-04-13T16:58:43.617Z,9.17
2018-04-13T17:01:09.871Z,10.50
2018-04-13T17:03:36.057Z,10.00
2018-04-13T17:06:02.243Z,7.53
2018-04-13T17:08:28.740Z,8.30
2018-04-13T17:10:54.982Z,8.67
2018-04-13T17:13:21.153Z,8.97
2018-04-13T17:15:47.361Z,8.93
2018-04-13T17:18:13.594Z,7.67
2018-04-13T17:20:39.829Z,8.77
2018-04-13T17:23:05.993Z,12.37
2018-04-13T17:25:32.174Z,7.93
2018-04-13T17:27:58.469Z,8.10
2018-04-13T17:30:24.703Z,8.73
2018-04-13T17:32:50.953Z,8.30
2018-04-13T17:35:17.215Z,6.87
2018-04-13T17:37:43.676Z,7.43
2018-04-13T17:40:09.981Z,8.80
2018-04-13T17:42:36.207Z,7.83
2018-04-13T17:45:02.380Z,7.50
2018-04-13T17:47:28.580Z,7.60
2018-04-13T17:49:54.754Z,9.33
2018-04-13T17:52:20.990Z,8.97
2018-04-13T17:54:47.187Z,6.20
2018-04-13T17:57:13.452Z,9.87
2018-04-13T17:59:39.637Z,6.67
2018-04-13T18:02:06.282Z,7.30
2018-04-13T18:04:32.518Z,8.67
2018-04-13T18:06:59.031Z,10.50
2018-04-13T18:09:25.365Z,8.37
2018-04-13T18:11:51.621Z,7.87
2018-04-13T18:14:17.815Z,8.23
2018-04-13T18:16:44.368Z,6.53
2018-04-13T18:19:10.551Z,7.10
2018-04-13T18:21:36.728Z,10.33
2018-04-13T18:24:03.058Z,13.40
2018-04-13T18:26:29.238Z,8.17
2018-04-13T18:28:55.418Z,8.87
2018-04-13T18:31:21.639Z,7.80
2018-04-13T18:33:48.217Z,7.60
2018-04-13T18:36:14.695Z,7.70
2018-04-13T18:38:40.942Z,8.10
2018-04-13T18:41:07.116Z,7.30
2018-04-13T18:43:33.691Z,6.50
2018-04-13T18:45:59.944Z,7.73
2018-04-13T18:48:26.568Z,7.03
2018-04-13T18:50:52.815Z,7.83
2018-04-13T18:53:19.332Z,10.03
2018-04-13T18:55:45.865Z,5.77
2018-04-13T18:58:12.077Z,5.40
2018-04-13T19:00:38.277Z,8.83
2018-04-13T19:03:04.453Z,5.17
2018-04-13T19:05:30.707Z,7.17
2018-04-13T19:07:56.891Z,9.33
2018-04-13T19:10:23.078Z,8.60
2018-04-13T19:12:49.405Z,6.83
2018-04-13T19:15:15.644Z,7.03
2018-04-13T19:17:42.231Z,8.00
2018-04-13T19:20:08.436Z,7.87
2018-04-13T19:22:34.978Z,6.10
2018-04-13T19:25:01.214Z,6.93
2018-04-13T19:27:27.635Z,6.90
2018-04-13T19:29:53.886Z,5.60
2018-04-13T19:32:20.135Z,8.67
2018-04-13T19:34:46.310Z,6.60
2018-04-13T19:37:12.543Z,5.30
2018-04-13T19:39:38.725Z,7.33
2018-04-13T19:42:04.899Z,10.10
2018-04-13T19:44:31.096Z,7.03
2018-04-13T19:46:57.274Z,6.37
2018-04-13T19:49:23.810Z,7.40
2018-04-13T19:51:50.049Z,8.33
2018-04-13T19:54:16.222Z,6.63
2018-04-13T19:56:42.561Z,6.07
2018-04-13T19:59:08.746Z,7.07
2018-04-13T20:01:34.975Z,5.67
2018-04-13T20:04:01.279Z,6.67
2018-04-13T20:06:27.522Z,6.20
2018-04-13T20:08:53.848Z,7.50
2018-04-13T20:11:20.460Z,6.00
2018-04-13T20:13:46.643Z,5.40
2018-04-13T20:16:27.869Z,7.67
2018-04-13T20:18:54.041Z,10.20
2018-04-13T20:21:20.365Z,6.77
2018-04-13T20:23:46.627Z,5.57
2018-04-13T20:26:12.796Z,5.57
2018-04-13T20:28:39.463Z,6.27
2018-04-13T20:31:05.690Z,5.50
2018-04-13T20:33:31.862Z,7.40
2018-04-13T20:35:58.057Z,5.70
2018-04-13T20:38:24.590Z,5.67
2018-04-13T20:40:50.780Z,5.93
2018-04-13T20:43:16.953Z,6.53
2018-04-13T20:45:43.145Z,6.03
2018-04-13T20:48:09.331Z,5.13
2018-04-13T20:50:36.117Z,9.07
2018-04-13T20:53:02.316Z,5.70
2018-04-13T20:55:28.486Z,7.80
2018-04-13T20:57:54.689Z,7.20
2018-04-13T21:00:20.915Z,6.00
2018-04-13T21:02:47.088Z,5.60
2018-04-13T21:05:13.269Z,5.60
2018-04-13T21:07:39.541Z,7.47
2018-04-13T21:10:06.014Z,5.77
2018-04-13T21:12:32.184Z,6.57
2018-04-13T21:14:58.388Z,6.43
2018-04-13T21:17:24.637Z,5.23
2018-04-13T21:19:50.837Z,5.17
2018-04-13T21:22:17.375Z,6.40
2018-04-13T21:24:43.602Z,4.80
2018-04-13T21:27:09.778Z,6.00
2018-04-13T21:29:36.095Z,5.60
2018-04-13T21:32:02.269Z,5.80
2018-04-13T21:34:28.805Z,6.17
2018-04-13T21:36:55.341Z,5.63
2018-04-13T21:39:21.762Z,6.50
2018-04-13T21:41:47.947Z,5.00
2018-04-13T21:44:14.128Z,5.43
2018-04-13T21:46:40.337Z,5.23
2018-04-13T21:49:06.545Z,5.20
2018-04-13T21:51:32.908Z,7.07
2018-04-13T21:53:59.105Z,5.47
2018-04-13T21:56:25.282Z,7.33
2018-04-13T21:58:51.540Z,4.73
2018-04-13T22:01:17.714Z,7.77
2018-04-13T22:03:44.261Z,5.73
2018-04-13T22:06:10.437Z,5.00
2018-04-13T22:08:37.042Z,5.30
2018-04-13T22:11:03.455Z,8.43
2018-04-13T22:13:30.914Z,4.97
2018-04-13T22:15:57.117Z,6.17
2018-04-13T22:18:23.397Z,5.90
2018-04-13T22:20:50.069Z,4.87
2018-04-13T22:23:16.305Z,5.10
2018-04-13T22:25:42.542Z,5.63
2018-04-13T22:28:08.742Z,7.00
2018-04-13T22:30:34.982Z,5.70
2018-04-13T22:33:01.186Z,4.97
2018-04-13T22:35:27.360Z,6.37
2018-04-13T22:37:54.067Z,5.33
2018-04-13T22:40:20.236Z,6.40
2018-04-13T22:42:46.397Z,4.57
2018-04-13T22:45:13.022Z,5.80
2018-04-13T22:47:39.222Z,4.57
2018-04-13T22:50:05.399Z,5.40
2018-04-13T22:52:31.668Z,4.43
2018-04-13T22:54:57.986Z,4.53
2018-04-13T22:57:24.282Z,4.80
2018-04-13T22:59:50.458Z,4.70
2018-04-13T23:02:16.908Z,4.97
2018-04-13T23:04:43.444Z,6.97
2018-04-13T23:07:09.612Z,5.10
2018-04-13T23:09:35.816Z,4.90
2018-04-13T23:12:02.002Z,4.97
2018-04-13T23:14:28.210Z,4.40
2018-04-13T23:16:54.389Z,4.60
2018-04-13T23:19:20.661Z,4.90
2018-04-13T23:21:46.832Z,4.77
2018-04-13T23:24:13.033Z,6.80
2018-04-13T23:26:39.208Z,5.50
2018-04-13T23:29:05.838Z,4.43
2018-04-13T23:31:32.013Z,5.30
2018-04-13T23:33:58.218Z,5.10
2018-04-13T23:36:24.476Z,5.77
2018-04-13T23:38:50.817Z,5.43
2018-04-13T23:41:16.987Z,6.03
2018-04-13T23:43:43.146Z,5.20
2018-04-13T23:46:09.417Z,5.47
2018-04-13T23:48:35.581Z,6.50
2018-04-13T23:51:01.781Z,5.33
2018-04-13T23:53:27.943Z,6.17
2018-04-13T23:55:54.177Z,7.40
2018-04-13T23:58:20.381Z,4.80
